sensor_id;sensor_type;location;lat;lon;timestamp;P1;durP1;ratioP1;P2;durP2;ratioP2
69188;SDS011;56302;52.322;5.926;2022-12-29T00:01:24;7.45;;;3.33;;
69188;SDS011;56302;52.322;5.926;2022-12-29T00:03:49;5.97;;;3.27;;
69188;SDS011;56302;52.322;5.926;2022-12-29T00:06:15;4.80;;;3.00;;
69188;SDS011;56302;52.322;5.926;2022-12-29T00:08:41;5.55;;;3.20;;
69188;SDS011;56302;52.322;5.926;2022-12-29T00:11:07;7.00;;;3.33;;
69188;SDS011;56302;52.322;5.926;2022-12-29T00:13:34;6.28;;;2.85;;
69188;SDS011;56302;52.322;5.926;2022-12-29T00:16:18;5.78;;;3.42;;
69188;SDS011;56302;52.322;5.926;2022-12-29T00:18:44;9.60;;;3.20;;
69188;SDS011;56302;52.322;5.926;2022-12-29T00:21:13;6.10;;;3.20;;
69188;SDS011;56302;52.322;5.926;2022-12-29T00:23:57;5.63;;;3.07;;
69188;SDS011;56302;52.322;5.926;2022-12-29T00:26:41;5.40;;;2.75;;
69188;SDS011;56302;52.322;5.926;2022-12-29T00:29:26;5.68;;;2.80;;
69188;SDS011;56302;52.322;5.926;2022-12-29T00:32:11;5.43;;;2.55;;
69188;SDS011;56302;52.322;5.926;2022-12-29T00:34:55;4.32;;;2.83;;
69188;SDS011;56302;52.322;5.926;2022-12-29T00:37:39;5.33;;;2.53;;
69188;SDS011;56302;52.322;5.926;2022-12-29T00:40:25;4.65;;;2.60;;
69188;SDS011;56302;52.322;5.926;2022-12-29T00:43:10;4.43;;;2.60;;
69188;SDS011;56302;52.322;5.926;2022-12-29T00:45:54;3.80;;;2.20;;
69188;SDS011;56302;52.322;5.926;2022-12-29T00:48:19;6.83;;;2.90;;
69188;SDS011;56302;52.322;5.926;2022-12-29T00:51:05;5.97;;;2.70;;
69188;SDS011;56302;52.322;5.926;2022-12-29T00:53:31;5.70;;;2.67;;
69188;SDS011;56302;52.322;5.926;2022-12-29T00:55:57;5.83;;;2.37;;
69188;SDS011;56302;52.322;5.926;2022-12-29T00:58:23;4.82;;;2.50;;
69188;SDS011;56302;52.322;5.926;2022-12-29T01:00:48;5.50;;;2.67;;
69188;SDS011;56302;52.322;5.926;2022-12-29T01:03:14;5.43;;;2.50;;
69188;SDS011;56302;52.322;5.926;2022-12-29T01:05:39;4.47;;;2.33;;
69188;SDS011;56302;52.322;5.926;2022-12-29T01:08:05;4.43;;;2.10;;
69188;SDS011;56302;52.322;5.926;2022-12-29T01:10:30;5.60;;;2.40;;
69188;SDS011;56302;52.322;5.926;2022-12-29T01:12:56;5.07;;;2.47;;
69188;SDS011;56302;52.322;5.926;2022-12-29T01:15:21;3.67;;;2.27;;
69188;SDS011;56302;52.322;5.926;2022-12-29T01:17:47;4.40;;;2.37;;
69188;SDS011;56302;52.322;5.926;2022-12-29T01:20:12;6.13;;;2.60;;
69188;SDS011;56302;52.322;5.926;2022-12-29T01:22:38;5.50;;;2.40;;
69188;SDS011;56302;52.322;5.926;2022-12-29T01:25:04;5.55;;;2.45;;
69188;SDS011;56302;52.322;5.926;2022-12-29T01:27:31;4.05;;;2.13;;
69188;SDS011;56302;52.322;5.926;2022-12-29T01:29:56;7.60;;;2.53;;
69188;SDS011;56302;52.322;5.926;2022-12-29T01:32:22;5.37;;;2.17;;
69188;SDS011;56302;52.322;5.926;2022-12-29T01:34:48;6.60;;;1.95;;
69188;SDS011;56302;52.322;5.926;2022-12-29T01:37:13;3.78;;;2.30;;
69188;SDS011;56302;52.322;5.926;2022-12-29T01:39:39;4.35;;;2.20;;
69188;SDS011;56302;52.322;5.926;2022-12-29T01:42:04;5.23;;;1.90;;
69188;SDS011;56302;52.322;5.926;2022-12-29T01:44:47;6.30;;;2.25;;
69188;SDS011;56302;52.322;5.926;2022-12-29T01:47:23;6.80;;;2.42;;
69188;SDS011;56302;52.322;5.926;2022-12-29T01:49:54;5.03;;;2.00;;
69188;SDS011;56302;52.322;5.926;2022-12-29T01:52:22;3.88;;;1.90;;
69188;SDS011;56302;52.322;5.926;2022-12-29T01:54:51;5.63;;;1.98;;
69188;SDS011;56302;52.322;5.926;2022-12-29T01:57:21;4.43;;;1.55;;
69188;SDS011;56302;52.322;5.926;2022-12-29T01:59:56;4.47;;;1.88;;
69188;SDS011;56302;52.322;5.926;2022-12-29T02:02:32;3.55;;;1.80;;
69188;SDS011;56302;52.322;5.926;2022-12-29T02:04:57;9.60;;;2.00;;
69188;SDS011;56302;52.322;5.926;2022-12-29T02:07:26;4.72;;;1.88;;
69188;SDS011;56302;52.322;5.926;2022-12-29T02:09:53;3.63;;;1.92;;
69188;SDS011;56302;52.322;5.926;2022-12-29T02:12:20;4.25;;;1.88;;
69188;SDS011;56302;52.322;5.926;2022-12-29T02:14:47;3.75;;;1.98;;
69188;SDS011;56302;52.322;5.926;2022-12-29T02:19:48;4.30;;;1.93;;
69188;SDS011;56302;52.322;5.926;2022-12-29T02:22:20;4.50;;;1.80;;
69188;SDS011;56302;52.322;5.926;2022-12-29T02:30:13;5.15;;;1.70;;
69188;SDS011;56302;52.322;5.926;2022-12-29T02:38:37;4.53;;;1.60;;
69188;SDS011;56302;52.322;5.926;2022-12-29T02:41:32;4.03;;;1.85;;
69188;SDS011;56302;52.322;5.926;2022-12-29T02:44:03;3.78;;;2.00;;
69188;SDS011;56302;52.322;5.926;2022-12-29T02:46:51;5.55;;;1.73;;
69188;SDS011;56302;52.322;5.926;2022-12-29T02:49:29;5.28;;;1.92;;
69188;SDS011;56302;52.322;5.926;2022-12-29T02:52:22;5.50;;;1.90;;
69188;SDS011;56302;52.322;5.926;2022-12-29T02:54:53;3.83;;;1.40;;
69188;SDS011;56302;52.322;5.926;2022-12-29T02:59:48;3.50;;;1.65;;
69188;SDS011;56302;52.322;5.926;2022-12-29T03:10:17;4.90;;;1.90;;
69188;SDS011;56302;52.322;5.926;2022-12-29T03:14:02;4.07;;;1.20;;
69188;SDS011;56302;52.322;5.926;2022-12-29T03:16:20;4.43;;;1.60;;
69188;SDS011;56302;52.322;5.926;2022-12-29T03:19:02;4.78;;;2.25;;
69188;SDS011;56302;52.322;5.926;2022-12-29T03:21:38;3.90;;;1.70;;
69188;SDS011;56302;52.322;5.926;2022-12-29T03:24:27;5.05;;;1.70;;
69188;SDS011;56302;52.322;5.926;2022-12-29T03:26:57;3.85;;;1.30;;
69188;SDS011;56302;52.322;5.926;2022-12-29T03:29:26;3.72;;;1.15;;
69188;SDS011;56302;52.322;5.926;2022-12-29T03:31:54;3.83;;;1.38;;
69188;SDS011;56302;52.322;5.926;2022-12-29T03:34:21;4.35;;;1.27;;
69188;SDS011;56302;52.322;5.926;2022-12-29T03:36:53;4.25;;;1.10;;
69188;SDS011;56302;52.322;5.926;2022-12-29T03:39:23;3.42;;;1.10;;
69188;SDS011;56302;52.322;5.926;2022-12-29T03:41:50;2.78;;;1.50;;
69188;SDS011;56302;52.322;5.926;2022-12-29T03:44:21;4.78;;;1.52;;
69188;SDS011;56302;52.322;5.926;2022-12-29T03:47:04;3.63;;;1.80;;
69188;SDS011;56302;52.322;5.926;2022-12-29T03:49:30;2.80;;;1.40;;
69188;SDS011;56302;52.322;5.926;2022-12-29T03:51:56;3.22;;;1.67;;
69188;SDS011;56302;52.322;5.926;2022-12-29T03:54:22;4.27;;;1.60;;
69188;SDS011;56302;52.322;5.926;2022-12-29T03:56:47;3.90;;;2.15;;
69188;SDS011;56302;52.322;5.926;2022-12-29T03:59:13;3.50;;;1.80;;
69188;SDS011;56302;52.322;5.926;2022-12-29T04:01:38;4.23;;;1.60;;
69188;SDS011;56302;52.322;5.926;2022-12-29T04:04:04;8.60;;;2.60;;
69188;SDS011;56302;52.322;5.926;2022-12-29T04:06:29;3.73;;;1.20;;
69188;SDS011;56302;52.322;5.926;2022-12-29T04:08:55;3.03;;;1.43;;
69188;SDS011;56302;52.322;5.926;2022-12-29T04:11:20;3.47;;;2.00;;
69188;SDS011;56302;52.322;5.926;2022-12-29T04:13:47;3.00;;;1.88;;
69188;SDS011;56302;52.322;5.926;2022-12-29T04:16:12;6.25;;;1.80;;
69188;SDS011;56302;52.322;5.926;2022-12-29T04:18:38;2.60;;;1.13;;
69188;SDS011;56302;52.322;5.926;2022-12-29T04:21:03;6.20;;;1.77;;
69188;SDS011;56302;52.322;5.926;2022-12-29T04:23:30;5.35;;;1.88;;
69188;SDS011;56302;52.322;5.926;2022-12-29T04:25:57;4.55;;;1.80;;
69188;SDS011;56302;52.322;5.926;2022-12-29T04:28:22;3.23;;;1.23;;
69188;SDS011;56302;52.322;5.926;2022-12-29T04:30:48;3.80;;;1.70;;
69188;SDS011;56302;52.322;5.926;2022-12-29T04:33:14;6.00;;;1.40;;
69188;SDS011;56302;52.322;5.926;2022-12-29T04:35:40;4.97;;;1.17;;
69188;SDS011;56302;52.322;5.926;2022-12-29T04:38:06;4.57;;;1.58;;
69188;SDS011;56302;52.322;5.926;2022-12-29T04:40:31;5.27;;;1.10;;
69188;SDS011;56302;52.322;5.926;2022-12-29T04:42:57;4.47;;;1.70;;
69188;SDS011;56302;52.322;5.926;2022-12-29T04:45:22;3.80;;;1.98;;
69188;SDS011;56302;52.322;5.926;2022-12-29T04:47:48;4.10;;;1.70;;
69188;SDS011;56302;52.322;5.926;2022-12-29T04:50:14;4.03;;;1.47;;
69188;SDS011;56302;52.322;5.926;2022-12-29T04:52:39;5.85;;;1.58;;
69188;SDS011;56302;52.322;5.926;2022-12-29T04:55:05;3.40;;;1.30;;
69188;SDS011;56302;52.322;5.926;2022-12-29T04:57:31;4.18;;;1.33;;
69188;SDS011;56302;52.322;5.926;2022-12-29T04:59:57;5.70;;;1.53;;
69188;SDS011;56302;52.322;5.926;2022-12-29T05:02:23;4.45;;;1.17;;
69188;SDS011;56302;52.322;5.926;2022-12-29T05:04:48;5.50;;;1.40;;
69188;SDS011;56302;52.322;5.926;2022-12-29T05:07:14;6.45;;;1.60;;
69188;SDS011;56302;52.322;5.926;2022-12-29T05:09:40;4.57;;;1.10;;
69188;SDS011;56302;52.322;5.926;2022-12-29T05:12:06;7.20;;;1.70;;
69188;SDS011;56302;52.322;5.926;2022-12-29T05:14:32;4.70;;;1.55;;
69188;SDS011;56302;52.322;5.926;2022-12-29T05:16:57;5.57;;;1.23;;
69188;SDS011;56302;52.322;5.926;2022-12-29T05:19:23;7.73;;;1.23;;
69188;SDS011;56302;52.322;5.926;2022-12-29T05:21:48;5.47;;;1.48;;
69188;SDS011;56302;52.322;5.926;2022-12-29T05:24:14;5.72;;;1.30;;
69188;SDS011;56302;52.322;5.926;2022-12-29T05:26:40;5.88;;;1.35;;
69188;SDS011;56302;52.322;5.926;2022-12-29T05:29:05;4.37;;;0.90;;
69188;SDS011;56302;52.322;5.926;2022-12-29T05:31:31;5.07;;;1.55;;
69188;SDS011;56302;52.322;5.926;2022-12-29T05:33:57;6.70;;;1.07;;
69188;SDS011;56302;52.322;5.926;2022-12-29T05:36:23;8.20;;;1.60;;
69188;SDS011;56302;52.322;5.926;2022-12-29T05:38:48;6.47;;;1.23;;
69188;SDS011;56302;52.322;5.926;2022-12-29T05:41:14;7.43;;;1.60;;
69188;SDS011;56302;52.322;5.926;2022-12-29T05:43:39;10.95;;;1.63;;
69188;SDS011;56302;52.322;5.926;2022-12-29T05:46:05;9.95;;;1.08;;
69188;SDS011;56302;52.322;5.926;2022-12-29T05:48:30;10.13;;;2.03;;
69188;SDS011;56302;52.322;5.926;2022-12-29T05:50:56;8.03;;;1.60;;
69188;SDS011;56302;52.322;5.926;2022-12-29T05:53:21;15.13;;;1.50;;
69188;SDS011;56302;52.322;5.926;2022-12-29T05:55:47;7.17;;;1.53;;
69188;SDS011;56302;52.322;5.926;2022-12-29T05:58:13;7.57;;;1.23;;
69188;SDS011;56302;52.322;5.926;2022-12-29T06:00:39;12.98;;;2.20;;
69188;SDS011;56302;52.322;5.926;2022-12-29T06:03:05;7.90;;;1.40;;
69188;SDS011;56302;52.322;5.926;2022-12-29T06:05:30;10.52;;;1.40;;
69188;SDS011;56302;52.322;5.926;2022-12-29T06:07:56;8.87;;;1.70;;
69188;SDS011;56302;52.322;5.926;2022-12-29T06:10:21;14.73;;;1.60;;
69188;SDS011;56302;52.322;5.926;2022-12-29T06:12:47;9.70;;;1.60;;
69188;SDS011;56302;52.322;5.926;2022-12-29T06:15:13;7.37;;;1.63;;
69188;SDS011;56302;52.322;5.926;2022-12-29T06:17:39;7.47;;;1.27;;
69188;SDS011;56302;52.322;5.926;2022-12-29T06:20:05;11.77;;;1.88;;
69188;SDS011;56302;52.322;5.926;2022-12-29T06:22:32;14.30;;;1.30;;
69188;SDS011;56302;52.322;5.926;2022-12-29T06:24:57;8.48;;;1.40;;
69188;SDS011;56302;52.322;5.926;2022-12-29T06:27:23;9.13;;;1.80;;
69188;SDS011;56302;52.322;5.926;2022-12-29T06:29:49;10.18;;;2.22;;
69188;SDS011;56302;52.322;5.926;2022-12-29T06:32:15;6.83;;;1.60;;
69188;SDS011;56302;52.322;5.926;2022-12-29T06:34:41;8.13;;;1.92;;
69188;SDS011;56302;52.322;5.926;2022-12-29T06:37:06;10.30;;;1.83;;
69188;SDS011;56302;52.322;5.926;2022-12-29T06:39:32;6.72;;;1.48;;
69188;SDS011;56302;52.322;5.926;2022-12-29T06:41:57;7.57;;;1.40;;
69188;SDS011;56302;52.322;5.926;2022-12-29T06:44:23;9.70;;;1.43;;
69188;SDS011;56302;52.322;5.926;2022-12-29T06:46:49;10.88;;;1.80;;
69188;SDS011;56302;52.322;5.926;2022-12-29T06:49:15;9.63;;;1.65;;
69188;SDS011;56302;52.322;5.926;2022-12-29T06:51:41;9.20;;;1.47;;
69188;SDS011;56302;52.322;5.926;2022-12-29T06:54:06;10.57;;;1.42;;
69188;SDS011;56302;52.322;5.926;2022-12-29T06:56:32;5.90;;;1.40;;
69188;SDS011;56302;52.322;5.926;2022-12-29T06:58:57;10.07;;;1.70;;
69188;SDS011;56302;52.322;5.926;2022-12-29T07:01:25;12.60;;;1.83;;
69188;SDS011;56302;52.322;5.926;2022-12-29T07:03:50;9.50;;;1.65;;
69188;SDS011;56302;52.322;5.926;2022-12-29T07:06:16;10.10;;;1.50;;
69188;SDS011;56302;52.322;5.926;2022-12-29T07:08:41;12.55;;;1.75;;
69188;SDS011;56302;52.322;5.926;2022-12-29T07:11:07;6.40;;;1.73;;
69188;SDS011;56302;52.322;5.926;2022-12-29T07:13:33;10.90;;;1.92;;
69188;SDS011;56302;52.322;5.926;2022-12-29T07:15:59;9.07;;;2.07;;
69188;SDS011;56302;52.322;5.926;2022-12-29T07:18:29;7.93;;;1.60;;
69188;SDS011;56302;52.322;5.926;2022-12-29T07:20:54;11.57;;;1.70;;
69188;SDS011;56302;52.322;5.926;2022-12-29T07:23:20;10.70;;;1.63;;
69188;SDS011;56302;52.322;5.926;2022-12-29T07:25:45;6.40;;;1.53;;
69188;SDS011;56302;52.322;5.926;2022-12-29T07:28:11;7.47;;;2.08;;
69188;SDS011;56302;52.322;5.926;2022-12-29T07:30:37;9.90;;;2.13;;
69188;SDS011;56302;52.322;5.926;2022-12-29T07:33:03;7.78;;;1.52;;
69188;SDS011;56302;52.322;5.926;2022-12-29T07:35:29;9.48;;;1.90;;
69188;SDS011;56302;52.322;5.926;2022-12-29T07:37:54;9.37;;;1.13;;
69188;SDS011;56302;52.322;5.926;2022-12-29T07:40:20;9.87;;;1.60;;
69188;SDS011;56302;52.322;5.926;2022-12-29T07:42:45;9.90;;;1.63;;
69188;SDS011;56302;52.322;5.926;2022-12-29T07:45:11;12.73;;;1.95;;
69188;SDS011;56302;52.322;5.926;2022-12-29T07:47:36;7.73;;;1.50;;
69188;SDS011;56302;52.322;5.926;2022-12-29T07:50:02;9.27;;;1.90;;
69188;SDS011;56302;52.322;5.926;2022-12-29T07:52:28;9.73;;;1.10;;
69188;SDS011;56302;52.322;5.926;2022-12-29T07:54:54;8.83;;;1.53;;
69188;SDS011;56302;52.322;5.926;2022-12-29T07:57:19;4.18;;;1.15;;
69188;SDS011;56302;52.322;5.926;2022-12-29T07:59:45;7.17;;;1.60;;
69188;SDS011;56302;52.322;5.926;2022-12-29T08:02:10;7.03;;;1.50;;
69188;SDS011;56302;52.322;5.926;2022-12-29T08:04:36;7.28;;;1.33;;
69188;SDS011;56302;52.322;5.926;2022-12-29T08:07:02;8.60;;;1.70;;
69188;SDS011;56302;52.322;5.926;2022-12-29T08:09:27;11.27;;;1.30;;
69188;SDS011;56302;52.322;5.926;2022-12-29T08:11:53;7.27;;;1.50;;
69188;SDS011;56302;52.322;5.926;2022-12-29T08:14:19;4.97;;;1.15;;
69188;SDS011;56302;52.322;5.926;2022-12-29T08:16:44;7.27;;;1.97;;
69188;SDS011;56302;52.322;5.926;2022-12-29T08:19:11;9.85;;;1.38;;
69188;SDS011;56302;52.322;5.926;2022-12-29T08:21:37;6.33;;;1.80;;
69188;SDS011;56302;52.322;5.926;2022-12-29T08:24:02;9.70;;;2.20;;
69188;SDS011;56302;52.322;5.926;2022-12-29T08:26:28;6.10;;;1.40;;
69188;SDS011;56302;52.322;5.926;2022-12-29T08:28:54;10.70;;;1.50;;
69188;SDS011;56302;52.322;5.926;2022-12-29T08:31:20;7.75;;;2.05;;
69188;SDS011;56302;52.322;5.926;2022-12-29T08:33:46;9.00;;;2.33;;
69188;SDS011;56302;52.322;5.926;2022-12-29T08:36:12;8.52;;;1.48;;
69188;SDS011;56302;52.322;5.926;2022-12-29T08:38:37;14.55;;;2.33;;
69188;SDS011;56302;52.322;5.926;2022-12-29T08:41:03;12.87;;;2.27;;
69188;SDS011;56302;52.322;5.926;2022-12-29T08:43:29;14.32;;;2.33;;
69188;SDS011;56302;52.322;5.926;2022-12-29T08:45:55;13.00;;;2.30;;
69188;SDS011;56302;52.322;5.926;2022-12-29T08:48:22;8.48;;;2.03;;
69188;SDS011;56302;52.322;5.926;2022-12-29T08:50:47;9.27;;;1.80;;
69188;SDS011;56302;52.322;5.926;2022-12-29T08:53:15;11.17;;;2.03;;
69188;SDS011;56302;52.322;5.926;2022-12-29T08:55:40;10.65;;;1.83;;
69188;SDS011;56302;52.322;5.926;2022-12-29T08:58:06;7.57;;;1.50;;
69188;SDS011;56302;52.322;5.926;2022-12-29T09:00:31;14.57;;;1.93;;
69188;SDS011;56302;52.322;5.926;2022-12-29T09:02:57;8.57;;;2.05;;
69188;SDS011;56302;52.322;5.926;2022-12-29T09:05:22;8.30;;;1.50;;
69188;SDS011;56302;52.322;5.926;2022-12-29T09:07:48;8.57;;;1.87;;
69188;SDS011;56302;52.322;5.926;2022-12-29T09:10:13;9.65;;;1.67;;
69188;SDS011;56302;52.322;5.926;2022-12-29T09:12:39;7.37;;;1.80;;
69188;SDS011;56302;52.322;5.926;2022-12-29T09:15:05;10.87;;;1.57;;
69188;SDS011;56302;52.322;5.926;2022-12-29T09:17:31;10.40;;;1.63;;
69188;SDS011;56302;52.322;5.926;2022-12-29T09:20:09;13.27;;;2.00;;
69188;SDS011;56302;52.322;5.926;2022-12-29T09:22:36;9.77;;;1.58;;
69188;SDS011;56302;52.322;5.926;2022-12-29T09:25:01;7.50;;;1.83;;
69188;SDS011;56302;52.322;5.926;2022-12-29T09:27:27;7.03;;;1.17;;
69188;SDS011;56302;52.322;5.926;2022-12-29T09:29:53;14.73;;;2.10;;
69188;SDS011;56302;52.322;5.926;2022-12-29T09:32:18;8.77;;;1.70;;
69188;SDS011;56302;52.322;5.926;2022-12-29T09:34:44;10.63;;;1.40;;
69188;SDS011;56302;52.322;5.926;2022-12-29T09:37:09;10.83;;;2.07;;
69188;SDS011;56302;52.322;5.926;2022-12-29T09:39:35;6.70;;;1.57;;
69188;SDS011;56302;52.322;5.926;2022-12-29T09:47:19;11.85;;;1.80;;
69188;SDS011;56302;52.322;5.926;2022-12-29T09:52:26;11.38;;;1.77;;
69188;SDS011;56302;52.322;5.926;2022-12-29T09:55:03;11.50;;;1.95;;
69188;SDS011;56302;52.322;5.926;2022-12-29T09:57:39;8.37;;;1.20;;
69188;SDS011;56302;52.322;5.926;2022-12-29T10:00:12;12.57;;;1.70;;
69188;SDS011;56302;52.322;5.926;2022-12-29T10:02:44;10.20;;;1.70;;
69188;SDS011;56302;52.322;5.926;2022-12-29T10:05:35;9.63;;;1.33;;
69188;SDS011;56302;52.322;5.926;2022-12-29T10:11:03;9.30;;;1.13;;
69188;SDS011;56302;52.322;5.926;2022-12-29T10:16:47;6.10;;;1.50;;
69188;SDS011;56302;52.322;5.926;2022-12-29T10:25:09;10.13;;;1.60;;
69188;SDS011;56302;52.322;5.926;2022-12-29T10:27:42;11.85;;;1.95;;
69188;SDS011;56302;52.322;5.926;2022-12-29T10:30:11;11.30;;;1.92;;
69188;SDS011;56302;52.322;5.926;2022-12-29T10:35:24;8.73;;;1.90;;
69188;SDS011;56302;52.322;5.926;2022-12-29T10:40:58;12.30;;;2.22;;
69188;SDS011;56302;52.322;5.926;2022-12-29T10:43:35;9.60;;;1.88;;
69188;SDS011;56302;52.322;5.926;2022-12-29T10:46:12;9.73;;;1.70;;
69188;SDS011;56302;52.322;5.926;2022-12-29T10:48:55;10.00;;;1.92;;
69188;SDS011;56302;52.322;5.926;2022-12-29T10:51:22;9.37;;;1.80;;
69188;SDS011;56302;52.322;5.926;2022-12-29T10:59:29;4.70;;;1.50;;
69188;SDS011;56302;52.322;5.926;2022-12-29T11:07:08;10.65;;;2.05;;
69188;SDS011;56302;52.322;5.926;2022-12-29T11:09:35;8.50;;;1.77;;
69188;SDS011;56302;52.322;5.926;2022-12-29T11:12:17;8.68;;;1.83;;
69188;SDS011;56302;52.322;5.926;2022-12-29T11:17:42;11.75;;;2.05;;
69188;SDS011;56302;52.322;5.926;2022-12-29T11:20:19;12.27;;;2.22;;
69188;SDS011;56302;52.322;5.926;2022-12-29T11:22:53;9.10;;;2.10;;
69188;SDS011;56302;52.322;5.926;2022-12-29T11:25:19;10.45;;;1.98;;
69188;SDS011;56302;52.322;5.926;2022-12-29T11:27:58;9.32;;;2.08;;
69188;SDS011;56302;52.322;5.926;2022-12-29T11:30:29;10.97;;;1.97;;
69188;SDS011;56302;52.322;5.926;2022-12-29T11:32:56;8.25;;;2.13;;
69188;SDS011;56302;52.322;5.926;2022-12-29T11:35:30;9.70;;;2.08;;
69188;SDS011;56302;52.322;5.926;2022-12-29T11:37:58;10.27;;;2.22;;
69188;SDS011;56302;52.322;5.926;2022-12-29T11:40:27;11.38;;;2.38;;
69188;SDS011;56302;52.322;5.926;2022-12-29T11:42:54;12.63;;;2.30;;
69188;SDS011;56302;52.322;5.926;2022-12-29T11:45:22;11.45;;;2.30;;
69188;SDS011;56302;52.322;5.926;2022-12-29T11:47:51;13.45;;;2.17;;
69188;SDS011;56302;52.322;5.926;2022-12-29T11:50:25;11.50;;;2.50;;
69188;SDS011;56302;52.322;5.926;2022-12-29T11:52:58;11.50;;;2.65;;
69188;SDS011;56302;52.322;5.926;2022-12-29T11:55:32;10.60;;;2.10;;
69188;SDS011;56302;52.322;5.926;2022-12-29T11:57:59;12.85;;;2.42;;
69188;SDS011;56302;52.322;5.926;2022-12-29T12:00:27;15.35;;;3.05;;
69188;SDS011;56302;52.322;5.926;2022-12-29T12:03:00;17.35;;;3.35;;
69188;SDS011;56302;52.322;5.926;2022-12-29T12:10:43;11.43;;;2.42;;
69188;SDS011;56302;52.322;5.926;2022-12-29T12:13:22;17.15;;;2.72;;
69188;SDS011;56302;52.322;5.926;2022-12-29T12:16:13;9.13;;;2.38;;
69188;SDS011;56302;52.322;5.926;2022-12-29T12:18:50;17.23;;;3.08;;
69188;SDS011;56302;52.322;5.926;2022-12-29T12:21:22;12.73;;;2.28;;
69188;SDS011;56302;52.322;5.926;2022-12-29T12:24:13;16.58;;;2.60;;
69188;SDS011;56302;52.322;5.926;2022-12-29T12:26:48;11.02;;;2.97;;
69188;SDS011;56302;52.322;5.926;2022-12-29T12:29:39;13.35;;;2.47;;
69188;SDS011;56302;52.322;5.926;2022-12-29T12:32:17;11.03;;;2.17;;
69188;SDS011;56302;52.322;5.926;2022-12-29T12:34:49;9.57;;;2.47;;
69188;SDS011;56302;52.322;5.926;2022-12-29T12:37:18;15.70;;;2.92;;
69188;SDS011;56302;52.322;5.926;2022-12-29T12:42:46;15.00;;;2.92;;
69188;SDS011;56302;52.322;5.926;2022-12-29T12:45:42;13.97;;;1.93;;
69188;SDS011;56302;52.322;5.926;2022-12-29T12:51:11;11.57;;;2.60;;
69188;SDS011;56302;52.322;5.926;2022-12-29T12:56:44;16.05;;;2.53;;
69188;SDS011;56302;52.322;5.926;2022-12-29T13:01:54;15.90;;;2.53;;
69188;SDS011;56302;52.322;5.926;2022-12-29T13:07:20;15.00;;;2.78;;
69188;SDS011;56302;52.322;5.926;2022-12-29T13:15:18;14.80;;;2.30;;
69188;SDS011;56302;52.322;5.926;2022-12-29T13:22:56;14.68;;;2.47;;
69188;SDS011;56302;52.322;5.926;2022-12-29T13:28:25;8.07;;;2.10;;
69188;SDS011;56302;52.322;5.926;2022-12-29T13:31:02;9.13;;;2.63;;
69188;SDS011;56302;52.322;5.926;2022-12-29T13:39:19;13.73;;;2.43;;
69188;SDS011;56302;52.322;5.926;2022-12-29T13:42:07;12.70;;;2.65;;
69188;SDS011;56302;52.322;5.926;2022-12-29T13:44:37;16.55;;;2.70;;
69188;SDS011;56302;52.322;5.926;2022-12-29T13:47:30;9.90;;;2.58;;
69188;SDS011;56302;52.322;5.926;2022-12-29T13:50:14;12.70;;;2.42;;
69188;SDS011;56302;52.322;5.926;2022-12-29T13:55:32;10.80;;;2.42;;
69188;SDS011;56302;52.322;5.926;2022-12-29T13:58:09;13.40;;;2.50;;
69188;SDS011;56302;52.322;5.926;2022-12-29T14:00:53;14.18;;;2.42;;
69188;SDS011;56302;52.322;5.926;2022-12-29T14:03:43;10.63;;;2.20;;
69188;SDS011;56302;52.322;5.926;2022-12-29T14:09:01;14.60;;;2.08;;
69188;SDS011;56302;52.322;5.926;2022-12-29T14:11:30;15.80;;;2.63;;
69188;SDS011;56302;52.322;5.926;2022-12-29T14:13:56;14.52;;;2.20;;
69188;SDS011;56302;52.322;5.926;2022-12-29T14:18:52;11.37;;;1.80;;
69188;SDS011;56302;52.322;5.926;2022-12-29T14:21:22;13.70;;;2.40;;
69188;SDS011;56302;52.322;5.926;2022-12-29T14:23:53;11.68;;;2.30;;
69188;SDS011;56302;52.322;5.926;2022-12-29T14:28:57;12.13;;;2.33;;
69188;SDS011;56302;52.322;5.926;2022-12-29T14:32:00;11.65;;;2.50;;
69188;SDS011;56302;52.322;5.926;2022-12-29T14:34:27;14.20;;;2.83;;
69188;SDS011;56302;52.322;5.926;2022-12-29T14:36:55;13.50;;;2.23;;
69188;SDS011;56302;52.322;5.926;2022-12-29T14:39:44;14.70;;;2.60;;
69188;SDS011;56302;52.322;5.926;2022-12-29T14:44:45;17.83;;;2.93;;
69188;SDS011;56302;52.322;5.926;2022-12-29T14:47:14;13.68;;;2.80;;
69188;SDS011;56302;52.322;5.926;2022-12-29T14:49:50;10.95;;;2.65;;
69188;SDS011;56302;52.322;5.926;2022-12-29T14:54:47;10.57;;;2.47;;
69188;SDS011;56302;52.322;5.926;2022-12-29T15:00:05;11.00;;;2.53;;
69188;SDS011;56302;52.322;5.926;2022-12-29T15:02:42;10.48;;;2.60;;
69188;SDS011;56302;52.322;5.926;2022-12-29T15:05:20;11.32;;;2.15;;
69188;SDS011;56302;52.322;5.926;2022-12-29T15:07:54;8.00;;;2.40;;
69188;SDS011;56302;52.322;5.926;2022-12-29T15:10:21;11.20;;;2.30;;
69188;SDS011;56302;52.322;5.926;2022-12-29T15:12:55;13.25;;;2.00;;
69188;SDS011;56302;52.322;5.926;2022-12-29T15:15:24;10.63;;;2.13;;
69188;SDS011;56302;52.322;5.926;2022-12-29T15:17:52;11.52;;;2.50;;
69188;SDS011;56302;52.322;5.926;2022-12-29T15:20:28;9.00;;;1.53;;
69188;SDS011;56302;52.322;5.926;2022-12-29T15:22:56;5.78;;;1.50;;
69188;SDS011;56302;52.322;5.926;2022-12-29T15:25:33;5.25;;;1.52;;
69188;SDS011;56302;52.322;5.926;2022-12-29T15:28:01;6.97;;;2.03;;
69188;SDS011;56302;52.322;5.926;2022-12-29T15:30:29;5.95;;;1.50;;
69188;SDS011;56302;52.322;5.926;2022-12-29T15:32:55;5.97;;;1.30;;
69188;SDS011;56302;52.322;5.926;2022-12-29T15:35:22;4.95;;;1.08;;
69188;SDS011;56302;52.322;5.926;2022-12-29T15:37:56;6.18;;;1.40;;
69188;SDS011;56302;52.322;5.926;2022-12-29T15:40:24;5.70;;;1.40;;
69188;SDS011;56302;52.322;5.926;2022-12-29T15:45:50;8.63;;;1.10;;
69188;SDS011;56302;52.322;5.926;2022-12-29T15:48:20;6.20;;;1.60;;
69188;SDS011;56302;52.322;5.926;2022-12-29T15:50:48;6.97;;;1.75;;
69188;SDS011;56302;52.322;5.926;2022-12-29T15:53:21;4.35;;;1.50;;
69188;SDS011;56302;52.322;5.926;2022-12-29T15:55:53;9.43;;;2.27;;
69188;SDS011;56302;52.322;5.926;2022-12-29T15:58:23;8.05;;;1.60;;
69188;SDS011;56302;52.322;5.926;2022-12-29T16:00:57;9.75;;;2.28;;
69188;SDS011;56302;52.322;5.926;2022-12-29T16:03:25;6.75;;;1.90;;
69188;SDS011;56302;52.322;5.926;2022-12-29T16:05:56;6.32;;;2.30;;
69188;SDS011;56302;52.322;5.926;2022-12-29T16:08:35;10.33;;;2.43;;
69188;SDS011;56302;52.322;5.926;2022-12-29T16:11:05;10.27;;;2.72;;
69188;SDS011;56302;52.322;5.926;2022-12-29T16:13:42;6.30;;;2.70;;
69188;SDS011;56302;52.322;5.926;2022-12-29T16:16:51;8.45;;;3.05;;
69188;SDS011;56302;52.322;5.926;2022-12-29T16:19:05;12.95;;;3.10;;
69188;SDS011;56302;52.322;5.926;2022-12-29T16:21:45;10.20;;;2.23;;
69188;SDS011;56302;52.322;5.926;2022-12-29T16:24:15;10.45;;;2.70;;
69188;SDS011;56302;52.322;5.926;2022-12-29T16:26:45;14.23;;;3.47;;
69188;SDS011;56302;52.322;5.926;2022-12-29T16:29:17;13.30;;;3.17;;
69188;SDS011;56302;52.322;5.926;2022-12-29T16:31:55;9.40;;;3.05;;
69188;SDS011;56302;52.322;5.926;2022-12-29T16:37:04;9.00;;;3.13;;
69188;SDS011;56302;52.322;5.926;2022-12-29T16:39:50;14.02;;;7.60;;
69188;SDS011;56302;52.322;5.926;2022-12-29T16:48:09;8.48;;;2.78;;
69188;SDS011;56302;52.322;5.926;2022-12-29T16:50:39;11.07;;;2.80;;
69188;SDS011;56302;52.322;5.926;2022-12-29T16:53:16;10.03;;;3.10;;
69188;SDS011;56302;52.322;5.926;2022-12-29T16:55:49;11.55;;;2.90;;
69188;SDS011;56302;52.322;5.926;2022-12-29T16:58:18;7.25;;;2.25;;
69188;SDS011;56302;52.322;5.926;2022-12-29T17:00:47;12.45;;;3.33;;
69188;SDS011;56302;52.322;5.926;2022-12-29T17:03:13;10.87;;;3.17;;
69188;SDS011;56302;52.322;5.926;2022-12-29T17:05:39;7.57;;;2.25;;
69188;SDS011;56302;52.322;5.926;2022-12-29T17:08:18;9.35;;;2.70;;
69188;SDS011;56302;52.322;5.926;2022-12-29T17:10:49;9.80;;;2.83;;
69188;SDS011;56302;52.322;5.926;2022-12-29T17:13:34;9.02;;;2.50;;